Portada
METAR-TAF:

METAR-TAF

Aeropuertos :

Sindal, Dinamarca

latitud: 57-30N, longitud: 010-13E, altitud: 28 m

Observación

El informe se hizo hace 3 horas y 25 minutos, a las 12:50 UTC
Viento 8 kt del sur
Temperatura 7°C
Humedad 87%
Presión 1010 hPa
Visibilidad 10 km o más
sin nubes por debajo de 1500 m y sin presencia de cumulonimbus.

METAR: EKSN 171250Z 17008KT CAVOK 07/05 Q1010

Hora: 17:15 (16:15 UTC)

Pronóstico

El informe se hizo hace 7 horas y 18 minutos, a las 08:57 UTC
Pronóstico válido del 17 a las 09 UTC al 17 a las 14 UTC
Viento 15 kt del sur
Visibilidad 10 km o más
Nubes dispersas a una altura de 3000 ft

TAF: EKSN 170857Z 1709/1714 18015KT 9999 SCT030

Observaciones y pronósticos meteorológicos de más de 4000 aeropuertos (mensajes METAR y TAF).

Los puntos amarillos y rojos representan las estaciones disponibles.

Ponga el ratón en el punto deseado para ver el nombre de la estación.

Haga clic para ver las observaciones y los pronósticos meteorológicos.

Para cambiar el mapa : haga clic en los botones verdes con una cruz de color negro para hacer un zoom, en el botón verde con un guión para alejar o en las flechas verdes para mapas adyacentes.


METAR-TAF: